sensor_id;sensor_type;location;lat;lon;timestamp;pressure;altitude;pressure_sealevel;temperature;humidity
56632;BME280;42503;39.928;-75.152;2023-10-09T00:05:36;100591.31;;;22.84;33.87
56632;BME280;42503;39.928;-75.152;2023-10-09T00:15:40;100643.91;;;23.15;33.15
56632;BME280;42503;39.928;-75.152;2023-10-09T00:25:49;100632.34;;;23.03;34.04
56632;BME280;42503;39.928;-75.152;2023-10-09T00:36:09;100659.03;;;23.09;33.58
56632;BME280;42503;39.928;-75.152;2023-10-09T00:46:11;100668.88;;;23.06;31.84
56632;BME280;42503;39.928;-75.152;2023-10-09T00:56:22;100680.84;;;23.07;32.53
56632;BME280;42503;39.928;-75.152;2023-10-09T01:06:29;100689.31;;;23.02;33.98
56632;BME280;42503;39.928;-75.152;2023-10-09T01:16:34;100683.78;;;22.97;32.24
56632;BME280;42503;39.928;-75.152;2023-10-09T01:26:40;100690.53;;;22.96;32.68
56632;BME280;42503;39.928;-75.152;2023-10-09T01:36:51;100696.53;;;23.03;34.06
56632;BME280;42503;39.928;-75.152;2023-10-09T01:46:57;100707.63;;;23.08;35.06
56632;BME280;42503;39.928;-75.152;2023-10-09T01:57:00;100714.84;;;23.09;33.01
56632;BME280;42503;39.928;-75.152;2023-10-09T02:07:10;100712.63;;;23.11;34.96
56632;BME280;42503;39.928;-75.152;2023-10-09T02:17:13;100710.88;;;23.15;35.00
56632;BME280;42503;39.928;-75.152;2023-10-09T02:27:29;100714.81;;;23.14;33.88
56632;BME280;42503;39.928;-75.152;2023-10-09T02:37:48;100730.19;;;23.12;33.51
56632;BME280;42503;39.928;-75.152;2023-10-09T02:47:50;100728.22;;;23.12;34.29
56632;BME280;42503;39.928;-75.152;2023-10-09T02:57:53;100721.66;;;23.03;33.60
56632;BME280;42503;39.928;-75.152;2023-10-09T03:08:17;100720.44;;;23.09;35.38
56632;BME280;42503;39.928;-75.152;2023-10-09T03:18:20;100714.56;;;23.11;36.16
56632;BME280;42503;39.928;-75.152;2023-10-09T03:28:21;100739.84;;;23.19;36.44
56632;BME280;42503;39.928;-75.152;2023-10-09T03:38:23;100733.66;;;23.22;36.47
56632;BME280;42503;39.928;-75.152;2023-10-09T03:48:27;100733.06;;;23.25;37.75
56632;BME280;42503;39.928;-75.152;2023-10-09T03:58:33;100734.94;;;23.30;37.72
56632;BME280;42503;39.928;-75.152;2023-10-09T04:08:35;100735.59;;;23.41;38.04
56632;BME280;42503;39.928;-75.152;2023-10-09T04:18:40;100730.56;;;23.43;38.43
56632;BME280;42503;39.928;-75.152;2023-10-09T04:28:49;100729.19;;;23.40;38.77
56632;BME280;42503;39.928;-75.152;2023-10-09T04:38:53;100719.47;;;23.38;39.08
56632;BME280;42503;39.928;-75.152;2023-10-09T04:49:01;100748.22;;;23.57;39.00
56632;BME280;42503;39.928;-75.152;2023-10-09T04:59:18;100721.56;;;23.46;39.24
56632;BME280;42503;39.928;-75.152;2023-10-09T05:09:20;100738.03;;;23.66;39.78
56632;BME280;42503;39.928;-75.152;2023-10-09T05:19:23;100738.59;;;23.63;39.81
56632;BME280;42503;39.928;-75.152;2023-10-09T05:29:42;100746.34;;;23.71;39.76
56632;BME280;42503;39.928;-75.152;2023-10-09T05:40:04;100742.22;;;23.64;39.95
56632;BME280;42503;39.928;-75.152;2023-10-09T05:50:12;100770.78;;;23.79;40.32
56632;BME280;42503;39.928;-75.152;2023-10-09T06:00:16;100762.91;;;23.81;40.41
56632;BME280;42503;39.928;-75.152;2023-10-09T06:10:36;100767.69;;;23.81;40.52
56632;BME280;42503;39.928;-75.152;2023-10-09T06:20:44;100761.50;;;23.84;40.73
56632;BME280;42503;39.928;-75.152;2023-10-09T06:31:13;100763.38;;;23.89;40.84
56632;BME280;42503;39.928;-75.152;2023-10-09T06:41:29;100765.84;;;23.90;41.13
56632;BME280;42503;39.928;-75.152;2023-10-09T06:51:46;100773.94;;;23.92;41.10
56632;BME280;42503;39.928;-75.152;2023-10-09T07:01:48;100770.00;;;23.93;41.42
56632;BME280;42503;39.928;-75.152;2023-10-09T07:12:10;100762.47;;;23.93;41.63
56632;BME280;42503;39.928;-75.152;2023-10-09T07:22:22;100743.28;;;23.87;41.54
56632;BME280;42503;39.928;-75.152;2023-10-09T07:32:23;100755.72;;;23.94;41.79
56632;BME280;42503;39.928;-75.152;2023-10-09T07:42:28;100767.63;;;24.00;41.92
56632;BME280;42503;39.928;-75.152;2023-10-09T07:52:41;100757.00;;;24.02;41.88
56632;BME280;42503;39.928;-75.152;2023-10-09T08:02:46;100769.00;;;24.02;42.37
56632;BME280;42503;39.928;-75.152;2023-10-09T08:12:49;100768.78;;;23.99;42.26
56632;BME280;42503;39.928;-75.152;2023-10-09T08:22:53;100772.31;;;24.04;42.44
56632;BME280;42503;39.928;-75.152;2023-10-09T08:33:07;100775.94;;;24.05;42.49
56632;BME280;42503;39.928;-75.152;2023-10-09T08:43:32;100782.06;;;24.07;42.44
56632;BME280;42503;39.928;-75.152;2023-10-09T08:53:39;100786.00;;;24.06;42.51
56632;BME280;42503;39.928;-75.152;2023-10-09T09:03:44;100793.25;;;24.07;42.52
56632;BME280;42503;39.928;-75.152;2023-10-09T09:13:46;100792.72;;;24.05;42.94
56632;BME280;42503;39.928;-75.152;2023-10-09T09:24:00;100809.47;;;24.05;42.94
56632;BME280;42503;39.928;-75.152;2023-10-09T09:34:08;100810.03;;;24.07;42.89
56632;BME280;42503;39.928;-75.152;2023-10-09T09:44:18;100809.19;;;24.06;43.25
56632;BME280;42503;39.928;-75.152;2023-10-09T09:54:19;100816.44;;;24.07;43.44
56632;BME280;42503;39.928;-75.152;2023-10-09T10:04:28;100820.38;;;24.06;43.47
56632;BME280;42503;39.928;-75.152;2023-10-09T10:14:51;100826.06;;;24.01;43.77
56632;BME280;42503;39.928;-75.152;2023-10-09T10:24:53;100823.69;;;24.08;43.71
56632;BME280;42503;39.928;-75.152;2023-10-09T10:34:55;100829.91;;;24.05;44.13
56632;BME280;42503;39.928;-75.152;2023-10-09T10:44:56;100830.50;;;24.02;43.88
56632;BME280;42503;39.928;-75.152;2023-10-09T10:55:11;100844.16;;;24.04;44.02
56632;BME280;42503;39.928;-75.152;2023-10-09T11:05:34;100824.91;;;24.02;44.35
56632;BME280;42503;39.928;-75.152;2023-10-09T11:15:40;100846.34;;;24.07;44.47
56632;BME280;42503;39.928;-75.152;2023-10-09T11:25:57;100852.47;;;24.09;44.45
56632;BME280;42503;39.928;-75.152;2023-10-09T11:36:20;100854.97;;;24.11;44.26
56632;BME280;42503;39.928;-75.152;2023-10-09T11:46:32;100858.88;;;24.09;44.23
56632;BME280;42503;39.928;-75.152;2023-10-09T11:56:49;100855.13;;;24.00;44.18
56632;BME280;42503;39.928;-75.152;2023-10-09T12:06:50;100872.75;;;24.01;44.57
56632;BME280;42503;39.928;-75.152;2023-10-09T12:17:07;100906.72;;;24.08;44.41
56632;BME280;42503;39.928;-75.152;2023-10-09T12:27:09;100897.81;;;24.06;44.06
56632;BME280;42503;39.928;-75.152;2023-10-09T12:37:12;100901.72;;;24.05;43.93
56632;BME280;42503;39.928;-75.152;2023-10-09T12:47:13;100906.28;;;24.01;43.83
56632;BME280;42503;39.928;-75.152;2023-10-09T12:57:14;100901.22;;;24.03;43.82
56632;BME280;42503;39.928;-75.152;2023-10-09T13:07:19;100916.84;;;24.04;43.31
56632;BME280;42503;39.928;-75.152;2023-10-09T13:17:24;100908.44;;;24.04;43.85
56632;BME280;42503;39.928;-75.152;2023-10-09T13:27:31;100903.78;;;23.99;43.37
56632;BME280;42503;39.928;-75.152;2023-10-09T13:37:35;100916.00;;;24.03;43.13
56632;BME280;42503;39.928;-75.152;2023-10-09T13:47:38;100921.38;;;24.00;43.51
56632;BME280;42503;39.928;-75.152;2023-10-09T13:57:39;100925.84;;;24.01;43.61
56632;BME280;42503;39.928;-75.152;2023-10-09T14:07:44;100936.47;;;23.99;43.16
56632;BME280;42503;39.928;-75.152;2023-10-09T14:17:45;100934.53;;;23.99;43.22
56632;BME280;42503;39.928;-75.152;2023-10-09T14:27:56;100914.94;;;23.99;42.78
56632;BME280;42503;39.928;-75.152;2023-10-09T14:37:58;100915.78;;;24.00;42.75
56632;BME280;42503;39.928;-75.152;2023-10-09T14:48:03;100906.88;;;23.98;41.89
56632;BME280;42503;39.928;-75.152;2023-10-09T14:58:04;100906.56;;;23.99;42.26
56632;BME280;42503;39.928;-75.152;2023-10-09T15:08:06;100908.44;;;24.04;42.57
56632;BME280;42503;39.928;-75.152;2023-10-09T15:18:11;100889.50;;;24.01;42.87
56632;BME280;42503;39.928;-75.152;2023-10-09T15:28:13;100903.75;;;24.18;43.01
56632;BME280;42503;39.928;-75.152;2023-10-09T15:38:16;100890.81;;;24.22;43.26
56632;BME280;42503;39.928;-75.152;2023-10-09T15:48:17;100885.06;;;24.32;43.66
56632;BME280;42503;39.928;-75.152;2023-10-09T15:58:22;100880.78;;;24.40;43.33
56632;BME280;42503;39.928;-75.152;2023-10-09T16:08:24;100866.41;;;24.47;43.12
56632;BME280;42503;39.928;-75.152;2023-10-09T16:18:27;100860.50;;;24.48;43.14
56632;BME280;42503;39.928;-75.152;2023-10-09T16:28:29;100853.88;;;24.58;43.44
56632;BME280;42503;39.928;-75.152;2023-10-09T16:38:30;100831.94;;;24.65;43.30
56632;BME280;42503;39.928;-75.152;2023-10-09T16:48:32;100815.66;;;24.67;43.32
56632;BME280;42503;39.928;-75.152;2023-10-09T16:58:33;100800.41;;;24.73;43.68
56632;BME280;42503;39.928;-75.152;2023-10-09T17:08:40;100800.63;;;24.77;43.42
56632;BME280;42503;39.928;-75.152;2023-10-09T17:18:47;100777.84;;;24.83;43.66
56632;BME280;42503;39.928;-75.152;2023-10-09T17:28:49;100777.53;;;24.85;43.65
56632;BME280;42503;39.928;-75.152;2023-10-09T17:38:53;100768.53;;;24.88;43.54
56632;BME280;42503;39.928;-75.152;2023-10-09T17:48:55;100752.56;;;24.89;43.17
56632;BME280;42503;39.928;-75.152;2023-10-09T17:59:00;100743.84;;;24.90;43.15
56632;BME280;42503;39.928;-75.152;2023-10-09T18:09:04;100736.25;;;24.91;42.99
56632;BME280;42503;39.928;-75.152;2023-10-09T18:19:16;100729.84;;;24.90;43.23
56632;BME280;42503;39.928;-75.152;2023-10-09T18:29:17;100721.00;;;24.97;43.17
56632;BME280;42503;39.928;-75.152;2023-10-09T18:39:19;100701.13;;;24.98;43.47
56632;BME280;42503;39.928;-75.152;2023-10-09T18:49:23;100723.06;;;25.05;43.22
56632;BME280;42503;39.928;-75.152;2023-10-09T18:59:26;100720.78;;;25.07;43.28
56632;BME280;42503;39.928;-75.152;2023-10-09T19:09:30;100712.94;;;25.09;42.95
56632;BME280;42503;39.928;-75.152;2023-10-09T19:19:32;100698.94;;;25.09;42.97
56632;BME280;42503;39.928;-75.152;2023-10-09T19:29:36;100684.69;;;25.05;43.09
56632;BME280;42503;39.928;-75.152;2023-10-09T19:39:37;100687.72;;;25.09;43.00
56632;BME280;42503;39.928;-75.152;2023-10-09T19:49:41;100686.56;;;25.10;43.02
56632;BME280;42503;39.928;-75.152;2023-10-09T19:59:43;100680.97;;;25.10;42.74
56632;BME280;42503;39.928;-75.152;2023-10-09T20:09:50;100664.41;;;25.00;42.82
56632;BME280;42503;39.928;-75.152;2023-10-09T20:19:51;100671.47;;;25.11;42.24
56632;BME280;42503;39.928;-75.152;2023-10-09T20:29:54;100671.63;;;25.15;42.29
56632;BME280;42503;39.928;-75.152;2023-10-09T20:39:56;100667.59;;;25.07;42.57
56632;BME280;42503;39.928;-75.152;2023-10-09T20:49:59;100662.53;;;25.09;42.47
56632;BME280;42503;39.928;-75.152;2023-10-09T21:00:02;100662.00;;;25.07;42.64
56632;BME280;42503;39.928;-75.152;2023-10-09T21:10:05;100676.00;;;25.07;43.01
56632;BME280;42503;39.928;-75.152;2023-10-09T21:20:08;100661.47;;;25.05;43.36
56632;BME280;42503;39.928;-75.152;2023-10-09T21:30:19;100671.53;;;25.06;43.88
56632;BME280;42503;39.928;-75.152;2023-10-09T21:40:22;100691.97;;;25.06;43.96
56632;BME280;42503;39.928;-75.152;2023-10-09T21:50:29;100730.31;;;25.06;43.85
56632;BME280;42503;39.928;-75.152;2023-10-09T22:00:31;100741.84;;;25.04;44.15
56632;BME280;42503;39.928;-75.152;2023-10-09T22:10:33;100730.16;;;24.89;44.17
56632;BME280;42503;39.928;-75.152;2023-10-09T22:20:34;100760.19;;;24.97;43.94
56632;BME280;42503;39.928;-75.152;2023-10-09T22:30:39;100775.22;;;25.01;43.89
56632;BME280;42503;39.928;-75.152;2023-10-09T22:40:44;100786.31;;;24.92;44.13
56632;BME280;42503;39.928;-75.152;2023-10-09T22:50:49;100779.06;;;24.91;44.33
56632;BME280;42503;39.928;-75.152;2023-10-09T23:00:59;100806.66;;;24.98;44.07
56632;BME280;42503;39.928;-75.152;2023-10-09T23:11:00;100796.59;;;24.97;44.50
56632;BME280;42503;39.928;-75.152;2023-10-09T23:21:13;100804.16;;;24.96;44.75
56632;BME280;42503;39.928;-75.152;2023-10-09T23:31:20;100822.41;;;24.94;44.52
56632;BME280;42503;39.928;-75.152;2023-10-09T23:41:37;100827.19;;;24.93;44.39
56632;BME280;42503;39.928;-75.152;2023-10-09T23:51:39;100838.38;;;24.93;44.79
